Time;durP1;ratioP1;P1;durP2;ratioP2;P2;SDS_P1;SDS_P2;PMS_P1;PMS_P2;Temp;Humidity;BMP_temperature;BMP_pressure;BME280_temperature;BME280_humidity;BME280_pressure;Samples;Min_cycle;Max_cycle;Signal;HPM_P1;HPM_P2
2021/03/26 04:34:44;;;;;;;1999.90;999.90;;;8.00;99.90;;;;;;6186089;22;20072;-96
2021/03/26 04:52:01;;;;;;;1999.90;999.90;;;8.10;99.90;;;;;;6095885;23;20045;-94
2021/03/26 04:54:40;;;;;;;1999.90;999.90;;;8.20;99.90;;;;;;6112566;23;20036;-95
2021/03/26 04:57:48;;;;;;;1999.90;999.90;;;8.10;99.90;;;;;;6219933;23;20384;-95
2021/03/26 05:00:36;;;;;;;1999.90;999.90;;;8.20;99.90;;;;;;6218382;23;20021;-96
2021/03/26 05:03:10;;;;;;;1999.90;999.90;;;8.20;99.90;;;;;;6218217;23;20031;-96
2021/03/26 05:05:49;;;;;;;1999.90;999.90;;;8.30;99.90;;;;;;6219289;23;20025;-95
2021/03/26 05:09:14;;;;;;;1999.90;999.90;;;8.20;99.90;;;;;;6219096;23;20048;-96
2021/03/26 05:12:32;;;;;;;1999.90;999.90;;;8.30;99.90;;;;;;6141505;23;20028;-96
2021/03/26 05:15:56;;;;;;;1999.90;999.90;;;8.30;99.90;;;;;;6218497;23;20020;-96
2021/03/26 05:19:11;;;;;;;1999.90;999.90;;;8.30;99.90;;;;;;6191633;23;20029;-96
2021/03/26 05:23:00;;;;;;;1999.90;999.90;;;8.30;99.90;;;;;;6097867;23;20335;-96
2021/03/26 05:26:19;;;;;;;1999.90;999.90;;;8.30;99.90;;;;;;6085084;23;20026;-95
2021/03/26 05:33:21;;;;;;;1999.90;999.90;;;8.30;99.90;;;;;;6092998;23;20025;-95
2021/03/26 05:36:42;;;;;;;1999.90;999.90;;;8.30;99.90;;;;;;6096768;23;20046;-96
2021/03/26 05:39:40;;;;;;;1999.90;999.90;;;8.30;99.90;;;;;;6092643;23;20045;-95
2021/03/26 05:42:34;;;;;;;1999.90;999.90;;;8.30;99.90;;;;;;6097357;23;20093;-96
2021/03/26 05:45:36;;;;;;;1999.90;999.90;;;8.40;99.90;;;;;;6097264;23;20081;-96
2021/03/26 05:48:38;;;;;;;1999.90;999.90;;;8.30;99.90;;;;;;6097038;23;20030;-96
2021/03/26 05:51:59;;;;;;;1999.90;999.90;;;8.30;99.90;;;;;;6097935;23;20019;-95
2021/03/26 05:55:15;;;;;;;1999.90;999.90;;;8.30;99.90;;;;;;6093932;23;20022;-96
2021/03/26 05:58:19;;;;;;;1999.90;999.90;;;8.30;99.90;;;;;;6086910;23;20123;-96
2021/03/26 06:05:15;;;;;;;1999.90;999.90;;;8.40;99.90;;;;;;6213307;23;20021;-96
2021/03/26 06:15:47;;;;;;;;;;;;;;;;;;;;;
2021/03/26 06:19:41;;;;;;;1999.90;999.90;;;8.40;99.90;;;;;;6211180;23;20100;-96
2021/03/26 06:23:40;;;;;;;1999.90;999.90;;;8.50;99.90;;;;;;6068374;23;20031;-96
2021/03/26 06:30:53;;;;;;;1999.90;999.90;;;8.50;99.90;;;;;;5904448;24;20104;-96
2021/03/26 06:34:23;;;;;;;1999.90;999.90;;;8.50;99.90;;;;;;5901569;24;20029;-96
2021/03/26 11:09:46;;;;;;;1999.90;999.90;;;11.90;99.60;;;;;;6189315;23;20060;-96
2021/03/26 11:41:49;;;;;;;1999.90;999.90;;;12.80;98.90;;;;;;6198206;22;20028;-96
2021/03/26 11:48:10;;;;;;;1999.90;999.90;;;12.90;98.50;;;;;;6155567;23;20018;-95
2021/03/26 11:50:55;;;;;;;1999.90;999.90;;;12.90;98.30;;;;;;6156630;23;20018;-94
2021/03/26 12:58:26;;;;;;;1999.90;999.90;;;13.90;94.50;;;;;;5928561;24;20015;-95
2021/03/26 13:04:43;;;;;;;1999.90;999.90;;;14.00;93.60;;;;;;6099542;23;20088;-96
2021/03/26 13:11:21;;;;;;;1999.90;999.90;;;14.20;94.00;;;;;;6159902;23;20024;-95
2021/03/26 13:14:38;;;;;;;1999.90;999.90;;;14.30;93.20;;;;;;6218415;23;20095;-95
2021/03/26 13:17:22;;;;;;;1999.90;999.90;;;14.40;94.30;;;;;;6127527;23;20088;-96
2021/03/26 13:20:02;;;;;;;1999.90;999.90;;;14.50;93.90;;;;;;6219099;23;20366;-96
2021/03/26 13:22:36;;;;;;;1999.90;999.90;;;14.80;94.30;;;;;;6219525;23;20092;-96
2021/03/26 13:25:55;;;;;;;1999.90;999.90;;;14.90;92.60;;;;;;6219228;23;20024;-95
2021/03/26 13:29:43;;;;;;;1999.90;999.90;;;14.90;93.00;;;;;;6196718;23;20036;-95
2021/03/26 13:36:34;;;;;;;1999.90;999.90;;;15.10;89.50;;;;;;6186997;23;20082;-96
2021/03/26 13:58:56;;;;;;;1999.90;999.90;;;14.70;91.70;;;;;;6098940;23;20050;-96
2021/03/26 14:01:26;;;;;;;1999.90;999.90;;;14.50;92.70;;;;;;6097941;23;20018;-96
2021/03/26 14:04:24;;;;;;;1999.90;999.90;;;14.40;93.00;;;;;;6097917;23;20026;-96
2021/03/26 14:06:57;;;;;;;1999.90;999.90;;;14.30;92.80;;;;;;6097840;23;20026;-95
2021/03/26 14:09:28;;;;;;;1999.90;999.90;;;14.30;92.70;;;;;;6096964;23;20026;-95
2021/03/26 14:12:04;;;;;;;1999.90;999.90;;;14.20;93.40;;;;;;6167854;23;20031;-95
2021/03/26 14:14:43;;;;;;;1999.90;999.90;;;14.20;93.20;;;;;;6218251;23;20025;-95
2021/03/26 14:17:22;;;;;;;1999.90;999.90;;;14.20;93.40;;;;;;6218549;23;20192;-96
2021/03/26 14:24:27;;;;;;;1999.90;999.90;;;14.00;93.40;;;;;;6218163;22;20036;-95
2021/03/26 14:27:16;;;;;;;1999.90;999.90;;;13.90;93.90;;;;;;6217636;23;20075;-96
2021/03/26 14:29:56;;;;;;;1999.90;999.90;;;13.70;94.40;;;;;;6218252;23;20024;-95
2021/03/26 14:32:35;;;;;;;1999.90;999.90;;;13.70;94.10;;;;;;6217548;23;20021;-95
2021/03/26 14:35:08;;;;;;;1999.90;999.90;;;13.70;94.80;;;;;;6218636;23;20120;-95
2021/03/26 14:41:55;;;;;;;1999.90;999.90;;;13.70;95.40;;;;;;6231854;23;20339;-95
2021/03/26 14:44:54;;;;;;;1999.90;999.90;;;13.70;95.80;;;;;;6222706;23;20112;-96
2021/03/26 14:47:32;;;;;;;1999.90;999.90;;;13.80;95.80;;;;;;6220936;23;20028;-96
2021/03/26 14:50:13;;;;;;;1999.90;999.90;;;13.70;95.20;;;;;;6224111;23;20025;-96
2021/03/26 14:52:59;;;;;;;1999.90;999.90;;;13.70;94.90;;;;;;6228267;23;20044;-96
2021/03/26 14:55:32;;;;;;;1999.90;999.90;;;13.70;94.90;;;;;;6216375;23;20021;-96
2021/03/26 15:01:10;;;;;;;1999.90;999.90;;;13.70;95.50;;;;;;6132107;23;20113;-96
2021/03/26 15:04:14;;;;;;;1999.90;999.90;;;13.60;94.90;;;;;;6134048;23;20021;-95
2021/03/26 15:36:25;;;;;;;1999.90;999.90;;;13.30;95.00;;;;;;6187790;23;20031;-96
2021/03/26 15:42:45;;;;;;;1999.90;999.90;;;13.40;95.40;;;;;;6187534;23;20332;-96
2021/03/26 15:45:20;;;;;;;1999.90;999.90;;;13.40;95.00;;;;;;6189137;23;20320;-96
2021/03/26 15:52:07;;;;;;;1999.90;999.90;;;13.40;94.70;;;;;;6197421;23;20044;-96
2021/03/26 17:39:37;;;;;;;1999.90;999.90;;;13.10;94.30;;;;;;6174810;23;20025;-96
2021/03/26 17:42:35;;;;;;;1999.90;999.90;;;13.00;94.50;;;;;;6165054;23;20021;-96
2021/03/26 17:45:23;;;;;;;1999.90;999.90;;;12.90;95.10;;;;;;6160819;23;20441;-96
2021/03/26 17:48:35;;;;;;;1999.90;999.90;;;12.80;95.40;;;;;;6160611;23;20025;-96
2021/03/26 19:18:51;;;;;;;1999.90;999.90;;;11.30;99.40;;;;;;6214625;23;20028;-96
2021/03/26 19:22:20;;;;;;;1999.90;999.90;;;11.30;99.50;;;;;;6228096;23;20027;-96
2021/03/26 19:34:13;;;;;;;1999.90;999.90;;;11.10;99.90;;;;;;6166867;23;20017;-96
2021/03/26 19:37:05;;;;;;;1999.90;999.90;;;11.00;99.90;;;;;;6166662;23;20060;-96
2021/03/26 19:39:52;;;;;;;1999.90;999.90;;;11.00;99.90;;;;;;6178943;23;20010;-96
2021/03/26 19:42:34;;;;;;;1999.90;999.90;;;11.00;99.90;;;;;;6168370;23;20381;-96
2021/03/26 19:45:18;;;;;;;1999.90;999.90;;;10.90;99.90;;;;;;6167238;23;20253;-96
2021/03/26 19:55:17;;;;;;;1999.90;999.90;;;10.90;99.90;;;;;;6177624;23;20029;-96
2021/03/26 20:28:00;;;;;;;1999.90;999.90;;;10.80;99.90;;;;;;6183481;22;20028;-96
2021/03/26 20:31:10;;;;;;;1999.90;999.90;;;10.80;99.90;;;;;;6230861;23;20025;-96
2021/03/26 21:09:31;;;;;;;1999.90;999.90;;;9.70;99.90;;;;;;6217099;22;20324;-96
2021/03/26 21:12:21;;;;;;;1999.90;999.90;;;9.60;99.90;;;;;;6222067;23;20016;-96
2021/03/26 21:15:27;;;;;;;1999.90;999.90;;;9.50;99.90;;;;;;6222396;23;20028;-96
2021/03/26 21:18:13;;;;;;;1999.90;999.90;;;9.40;99.90;;;;;;6224194;23;20028;-96
2021/03/26 21:20:57;;;;;;;1999.90;999.90;;;9.30;99.90;;;;;;6222090;23;20040;-96
2021/03/26 21:24:27;;;;;;;1999.90;999.90;;;9.20;99.90;;;;;;6222561;23;20075;-96
2021/03/26 21:27:26;;;;;;;1999.90;999.90;;;9.10;99.90;;;;;;6215389;23;20047;-96
2021/03/26 21:30:56;;;;;;;1999.90;999.90;;;9.00;99.90;;;;;;6236492;23;20359;-96
2021/03/26 21:37:20;;;;;;;1999.90;999.90;;;8.90;99.90;;;;;;6221826;23;20107;-96
2021/03/26 21:40:05;;;;;;;;;;;8.80;99.90;;;;;;6219818;23;20036;-96
2021/03/26 21:42:57;;;;;;;1999.90;999.90;;;8.80;99.90;;;;;;6226757;23;19960;-96
